Terminal Aerodrome Forecast
Issued by NWS

Home | Current Version | Previous Version | Text Only | Print | Product List | Glossary On
Versions: 1 2 3 4 5 6 7 8 9 10 11 12 13 14 15 16 17 18 19
000
FTUS44 KLZK 041729
TAFHRO
TAF
KHRO 041729Z 0418/0518 31003KT P6SM OVC007
     FM042000 31005KT P6SM BKN008 OVC011
     FM042200 31002KT P6SM BKN015
     FM050100 32004KT P6SM SCT025
     FM050600 VRB03KT 4SM BR SCT250
     FM050900 VRB03KT 1/2SM FG OVC001
     FM051600 13003KT 4SM BR SCT005 BKN250=

USA.gov is the U.S. government's official web portal to all federal, state and local government web resources and services.